createdAt,value
2018-06-14T10:23:36.841Z,935.7
2018-06-14T10:24:36.892Z,936.1
2018-06-14T10:25:36.768Z,936.1
2018-06-14T10:26:36.657Z,936.1
2018-06-14T10:27:36.526Z,936.1
2018-06-14T10:28:37.398Z,936
2018-06-14T10:29:40.495Z,936
2018-06-14T10:30:40.372Z,936
2018-06-14T10:31:40.305Z,935.9
2018-06-14T10:32:40.174Z,936
2018-06-14T10:42:15.552Z,935.9
2018-06-14T10:43:15.562Z,935.9
2018-06-14T10:44:15.450Z,935.9
2018-06-14T10:45:15.334Z,935.9
2018-06-14T10:46:15.236Z,935.9
2018-06-14T10:47:15.136Z,935.9
2018-06-14T10:48:15.017Z,935.5
2018-06-14T10:49:14.905Z,936
2018-06-14T10:50:14.788Z,935.9
2018-06-14T10:51:14.663Z,935.9
2018-06-14T10:52:14.981Z,935.9
2018-06-14T10:53:14.859Z,935.9
2018-06-14T10:54:14.724Z,935.9
2018-06-14T10:55:14.595Z,935.9
2018-06-14T10:56:14.474Z,936
2018-06-14T10:57:14.355Z,935.5
2018-06-14T10:58:14.272Z,935.5
2018-06-14T10:59:15.059Z,935.9
2018-06-14T11:00:14.939Z,935.8
2018-06-14T11:01:14.829Z,935.8
2018-06-14T11:02:15.726Z,935.5
2018-06-14T11:03:15.618Z,935.9
2018-06-14T11:04:15.506Z,935.9
2018-06-14T11:05:15.387Z,935.9
2018-06-14T11:06:15.285Z,935.9
2018-06-14T11:07:15.153Z,935.6
2018-06-14T11:08:15.066Z,932.8
2018-06-14T11:09:14.953Z,935.6
2018-06-14T11:10:14.843Z,936
2018-06-14T11:11:14.719Z,935.9
2018-06-14T11:12:15.058Z,936
2018-06-14T11:13:15.318Z,935.9
2018-06-14T11:14:15.531Z,935.9
2018-06-14T11:15:15.410Z,935.5
2018-06-14T11:16:15.300Z,935.9
2018-06-14T11:17:15.197Z,935.9
2018-06-14T11:18:15.119Z,935.5
2018-06-14T11:19:15.002Z,935.9
2018-06-14T11:20:15.196Z,935.9
2018-06-14T11:21:15.100Z,935.9
2018-06-14T11:22:15.410Z,935.9
2018-06-14T11:23:15.374Z,935.6
2018-06-14T11:24:15.287Z,935.9
2018-06-14T11:25:15.152Z,935.8
2018-06-14T11:26:15.016Z,935.9
2018-06-14T11:27:14.914Z,935.9
2018-06-14T11:28:14.805Z,935.9
2018-06-14T11:29:14.682Z,935.5
2018-06-14T11:30:14.572Z,935.9
2018-06-14T11:31:14.456Z,935.8
2018-06-14T11:32:14.850Z,935.8
2018-06-14T11:33:14.730Z,934.8
2018-06-14T11:34:14.647Z,935.8
2018-06-14T11:35:14.542Z,935.4
2018-06-14T11:36:14.421Z,935.4
2018-06-14T11:37:14.308Z,935.7
2018-06-14T11:38:14.173Z,935.8
2018-06-14T11:39:14.056Z,935.7
2018-06-14T11:40:13.991Z,935.8
2018-06-14T11:41:13.853Z,935.7
2018-06-14T11:42:14.153Z,935.4
2018-06-14T11:43:14.080Z,933.1
2018-06-14T11:44:13.969Z,935.4
2018-06-14T11:45:13.853Z,935.8
2018-06-14T11:46:13.729Z,935.7
2018-06-14T11:47:13.625Z,935.7
2018-06-14T11:48:13.682Z,935.8
2018-06-14T11:49:13.589Z,935.7
2018-06-14T11:50:13.483Z,935.7
2018-06-14T11:51:13.368Z,935.7
2018-06-14T11:52:13.661Z,935.7
2018-06-14T11:53:13.541Z,935.7
2018-06-14T11:54:13.725Z,935.6
2018-06-14T11:55:13.646Z,935.7
2018-06-14T11:56:13.539Z,935.3
2018-06-14T11:57:13.417Z,935.6
2018-06-14T11:58:13.302Z,935.5
2018-06-14T11:59:13.190Z,935.6
2018-06-14T12:00:13.073Z,935.7
2018-06-14T12:01:13.248Z,935.7
2018-06-14T12:02:13.740Z,935.5
2018-06-14T12:03:13.637Z,935.6
2018-06-14T12:04:13.522Z,935.7
2018-06-14T12:05:13.433Z,935.6
2018-06-14T12:06:13.301Z,935.2
2018-06-14T12:07:13.182Z,935.6
2018-06-14T12:08:13.054Z,935.6
2018-06-14T12:09:13.160Z,935.6
2018-06-14T12:10:13.097Z,935.6
2018-06-14T12:11:13.008Z,935.6
2018-06-14T12:12:13.292Z,935.6
2018-06-14T12:13:13.177Z,935.6
2018-06-14T12:14:13.048Z,935.2
2018-06-14T12:15:13.539Z,935.7
2018-06-14T12:16:13.508Z,935.7
2018-06-14T12:17:13.367Z,935.6
2018-06-14T12:18:13.255Z,935.6
2018-06-14T12:19:13.137Z,935.6
2018-06-14T12:20:13.004Z,935.6
2018-06-14T12:21:12.918Z,935.7
2018-06-14T12:22:13.240Z,935.7
2018-06-14T12:23:13.134Z,935.6
2018-06-14T12:24:13.019Z,935.2
2018-06-14T12:25:12.929Z,935.7
2018-06-14T12:26:13.074Z,935.5
2018-06-14T12:27:12.991Z,935.6
2018-06-14T12:28:12.871Z,935.6
2018-06-14T12:29:12.754Z,934.7
2018-06-14T12:30:12.639Z,935.2
2018-06-14T12:31:12.533Z,935.6
2018-06-14T12:32:13.056Z,935.7
2018-06-14T12:33:13.000Z,933.7
2018-06-14T12:34:12.891Z,932.5
2018-06-14T12:35:12.778Z,935.2
2018-06-14T12:36:12.697Z,933.1
2018-06-14T12:37:12.581Z,935.6
2018-06-14T12:38:12.469Z,935.7
2018-06-14T12:39:12.392Z,935.7
2018-06-14T12:40:12.297Z,935.6
2018-06-14T12:41:12.174Z,935.6
2018-06-14T12:42:12.494Z,935.6
2018-06-14T12:43:12.363Z,935.6
2018-06-14T12:44:12.652Z,935.6
2018-06-14T12:45:12.540Z,935.2
2018-06-14T12:46:12.412Z,935.6
2018-06-14T12:47:12.310Z,935.6
2018-06-14T12:48:12.412Z,935.5
2018-06-14T12:49:12.290Z,935.6
2018-06-14T12:50:12.177Z,935.4
2018-06-14T12:51:12.083Z,935.2
2018-06-14T12:52:12.397Z,935.2
2018-06-14T12:53:12.292Z,935.2
2018-06-14T12:54:12.180Z,935.6
2018-06-14T12:55:12.086Z,935.5
2018-06-14T12:56:11.989Z,935.5
2018-06-14T12:57:11.883Z,935.5
2018-06-14T12:58:11.761Z,935.5
2018-06-14T12:59:11.636Z,935.5
2018-06-14T13:00:12.180Z,935.5
2018-06-14T13:01:12.073Z,935.6
2018-06-14T13:02:12.408Z,935.5
2018-06-14T13:03:12.304Z,935.5
2018-06-14T13:04:12.851Z,935.2
2018-06-14T13:05:12.746Z,935.5
2018-06-14T13:06:12.636Z,935.5
2018-06-14T13:07:12.515Z,935.6
2018-06-14T13:08:12.426Z,935.5
2018-06-14T13:09:12.301Z,935.1
2018-06-14T13:10:12.206Z,935.2
2018-06-14T13:11:12.522Z,935.6
2018-06-14T13:12:12.913Z,935.6
2018-06-14T13:13:12.866Z,935.6
2018-06-14T13:14:12.750Z,935.2
2018-06-14T13:15:12.641Z,935.6
2018-06-14T13:16:12.537Z,935.6
2018-06-14T13:17:12.422Z,935.5
2018-06-14T13:18:12.315Z,935.5
2018-06-14T13:19:12.202Z,935.5
2018-06-14T13:20:12.289Z,935.4
2018-06-14T13:21:12.180Z,935.1
2018-06-14T13:22:12.498Z,934.9
2018-06-14T13:23:12.398Z,935.1
2018-06-14T13:24:12.888Z,935.4
2018-06-14T13:25:12.788Z,935.5
2018-06-14T13:26:12.660Z,935.3
2018-06-14T13:27:12.533Z,934.7
2018-06-14T13:28:12.433Z,935.4
2018-06-14T13:29:12.345Z,935.1
2018-06-14T13:30:12.238Z,935.1
2018-06-14T13:31:12.127Z,935.4
2018-06-14T13:32:12.472Z,935.4
2018-06-14T13:33:12.363Z,935
2018-06-14T13:34:12.530Z,935.4
2018-06-14T13:35:12.411Z,935.4
2018-06-14T13:36:12.293Z,935.4
2018-06-14T13:37:12.173Z,935.5
2018-06-14T13:38:12.046Z,935.5
2018-06-14T13:39:11.968Z,935.4
2018-06-14T13:40:11.841Z,935.4
2018-06-14T13:41:11.713Z,932.3
2018-06-14T13:42:12.211Z,935
2018-06-14T13:43:12.101Z,935.4
2018-06-14T13:44:11.989Z,935.4
2018-06-14T13:45:12.548Z,935
2018-06-14T13:46:12.493Z,935.4
2018-06-14T13:47:12.372Z,932.3
2018-06-14T13:48:12.261Z,935
2018-06-14T13:49:13.398Z,935.3
2018-06-14T13:50:13.387Z,935.3
2018-06-14T13:51:13.279Z,935.3
2018-06-14T13:52:13.553Z,935.3
2018-06-14T13:53:13.437Z,935.3
2018-06-14T13:54:13.331Z,935.2
2018-06-14T13:55:13.242Z,935.2
2018-06-14T13:56:13.113Z,935.2
2018-06-14T13:57:13.004Z,935.3
2018-06-14T13:58:12.902Z,935.2
2018-06-14T13:59:12.774Z,935.1
2018-06-14T14:00:12.690Z,935.3
2018-06-14T14:01:14.167Z,935.2
2018-06-14T14:02:14.697Z,935.2
2018-06-14T14:03:14.576Z,935.2
2018-06-14T14:04:14.465Z,935.2
2018-06-14T14:05:14.347Z,935.1
2018-06-14T14:06:14.220Z,934.8
2018-06-14T14:07:14.106Z,935.2
2018-06-14T14:08:13.995Z,935.2
2018-06-14T14:09:13.879Z,935.2
2018-06-14T14:10:13.815Z,935.1
2018-06-14T14:11:13.710Z,935.2
2018-06-14T14:12:14.003Z,935.2
2018-06-14T14:13:13.883Z,934.3
2018-06-14T14:14:13.785Z,935.1
2018-06-14T14:15:13.660Z,935
2018-06-14T14:16:13.561Z,935.2
2018-06-14T14:17:13.433Z,935.1
2018-06-14T14:18:13.315Z,935.1
2018-06-14T14:19:13.196Z,935.1
2018-06-14T14:20:13.079Z,935.2
2018-06-14T14:21:12.997Z,934.7
2018-06-14T14:22:13.267Z,935.1
2018-06-14T14:23:13.147Z,935.1
2018-06-14T14:24:13.044Z,935
2018-06-14T14:25:12.908Z,935.1
2018-06-14T14:26:12.833Z,932
2018-06-14T14:27:12.719Z,935.1
2018-06-14T14:28:12.578Z,935
2018-06-14T14:29:12.462Z,935
2018-06-14T14:30:12.348Z,934.7
2018-06-14T14:31:12.224Z,935.1
2018-06-14T14:32:12.547Z,935
2018-06-14T14:33:12.424Z,935.1
2018-06-14T14:34:12.300Z,935.1
2018-06-14T14:35:12.214Z,935.1
2018-06-14T14:36:13.673Z,935.1
2018-06-14T14:37:13.949Z,934.1
2018-06-14T14:38:13.820Z,934.7
2018-06-14T14:39:13.694Z,935
2018-06-14T14:40:13.568Z,935.1
2018-06-14T14:41:13.431Z,935
2018-06-14T14:42:13.739Z,935.1
2018-06-14T14:43:13.609Z,935.1
2018-06-14T14:44:13.508Z,935
2018-06-14T14:45:13.420Z,935
2018-06-14T14:46:13.306Z,935
2018-06-14T14:47:13.237Z,935
2018-06-14T14:48:13.096Z,935.1
2018-06-14T14:49:12.993Z,935.1
2018-06-14T14:50:12.876Z,935
2018-06-14T14:51:12.757Z,935
2018-06-14T14:52:13.059Z,935
2018-06-14T14:53:13.870Z,935
2018-06-14T14:54:13.842Z,934.7
2018-06-14T14:55:13.708Z,935
2018-06-14T14:56:13.593Z,935
2018-06-14T14:57:13.471Z,935
2018-06-14T14:58:13.372Z,933.7
2018-06-14T14:59:13.259Z,934.6
2018-06-14T15:00:13.132Z,935
2018-06-14T15:01:13.003Z,935
2018-06-14T15:02:13.310Z,935
2018-06-14T15:03:13.229Z,935.2
2018-06-14T15:04:15.892Z,935
2018-06-14T15:05:15.771Z,935
2018-06-14T15:06:15.668Z,934.7
2018-06-14T15:07:15.552Z,935
2018-06-14T15:08:15.467Z,934.6
2018-06-14T15:09:15.331Z,935
2018-06-14T15:10:15.200Z,935
2018-06-14T15:11:15.084Z,934.7
2018-06-14T15:12:15.393Z,935
2018-06-14T15:13:15.292Z,934.7
2018-06-14T15:14:15.655Z,935
2018-06-14T15:15:15.598Z,935
2018-06-14T15:16:15.479Z,935
2018-06-14T15:17:15.358Z,935
2018-06-14T15:18:15.476Z,935
2018-06-14T15:19:15.350Z,935
2018-06-14T15:20:15.249Z,934.6
2018-06-14T15:21:15.120Z,935.1
2018-06-14T15:22:15.406Z,935
2018-06-14T15:23:15.276Z,934.6
2018-06-14T15:24:15.188Z,932.1
2018-06-14T15:25:15.075Z,934.7
2018-06-14T15:26:14.960Z,935.1
2018-06-14T15:27:14.832Z,935.1
2018-06-14T15:28:14.762Z,935.1
2018-06-14T15:29:14.690Z,935.1
2018-06-14T15:30:14.567Z,935.1
2018-06-14T15:31:14.441Z,935.1
2018-06-14T15:32:14.775Z,935.1
2018-06-14T15:33:14.659Z,935
2018-06-14T15:34:14.559Z,935
2018-06-14T15:35:14.427Z,934.7
2018-06-14T15:36:14.303Z,935.1
2018-06-14T15:37:14.650Z,935.1
2018-06-14T15:38:14.597Z,935.1
2018-06-14T15:39:14.487Z,935
2018-06-14T15:40:14.379Z,935
2018-06-14T15:41:14.255Z,935.1
2018-06-14T15:42:14.544Z,935.1
2018-06-14T15:43:14.431Z,935.1
2018-06-14T15:44:14.295Z,935
2018-06-14T15:45:14.179Z,935
2018-06-14T15:46:14.057Z,935.1
2018-06-14T15:47:13.940Z,935.1
2018-06-14T15:48:13.823Z,935.1
2018-06-14T15:49:13.703Z,934.7
2018-06-14T15:50:13.580Z,935
2018-06-14T15:51:13.433Z,935.1
2018-06-14T15:52:13.726Z,934.7
2018-06-14T15:53:13.606Z,935.1
2018-06-14T15:54:13.619Z,935.1
2018-06-14T15:55:13.523Z,935.1
2018-06-14T15:56:13.401Z,935
2018-06-14T15:57:13.273Z,935
2018-06-14T15:58:13.157Z,934.7
2018-06-14T15:59:13.058Z,935.1
2018-06-14T16:00:12.956Z,934.7
2018-06-14T16:01:12.853Z,935
2018-06-14T16:02:13.141Z,935.1
2018-06-14T16:03:13.025Z,935.1
2018-06-14T16:04:13.091Z,935
2018-06-14T16:05:12.977Z,935.1
2018-06-14T16:06:12.886Z,935.1
2018-06-14T16:07:12.755Z,935.1
2018-06-14T16:08:13.315Z,935.1
2018-06-14T16:09:13.211Z,935.1
2018-06-14T16:10:13.098Z,935.1
2018-06-14T16:11:12.985Z,935.1
2018-06-14T16:12:13.285Z,935.1
2018-06-14T16:13:13.153Z,934.7
2018-06-14T16:14:13.033Z,935.1
2018-06-14T16:15:12.893Z,935.1
2018-06-14T16:16:12.787Z,934.9
2018-06-14T16:17:12.677Z,935.1
2018-06-14T16:18:12.558Z,935.1
2018-06-14T16:19:12.448Z,935.2
2018-06-14T16:20:12.310Z,935.1
2018-06-14T16:21:12.516Z,935.2
2018-06-14T16:22:12.931Z,935.1
2018-06-14T16:23:12.783Z,935.1
2018-06-14T16:24:13.686Z,935.2
2018-06-14T16:25:13.562Z,935.2
2018-06-14T16:26:13.516Z,935.2
2018-06-14T16:27:13.409Z,935.2
2018-06-14T16:28:13.287Z,935.2
2018-06-14T16:29:13.183Z,935.2
2018-06-14T16:30:13.058Z,934.8
2018-06-14T16:31:12.934Z,935.2
2018-06-14T16:32:13.268Z,935.2
2018-06-14T16:33:13.150Z,935.2
2018-06-14T16:34:13.440Z,935.2
2018-06-14T16:35:13.337Z,935.2
2018-06-14T16:36:13.208Z,934.6
2018-06-14T16:37:13.136Z,935.2
2018-06-14T16:38:13.049Z,935.2
2018-06-14T16:39:12.919Z,934.8
2018-06-14T16:40:13.087Z,935.2
2018-06-14T16:41:13.002Z,935.2
2018-06-14T16:42:13.297Z,935.2
2018-06-14T16:43:13.577Z,934.8
2018-06-14T16:44:13.530Z,935.1
2018-06-14T16:45:13.409Z,935.1
2018-06-14T16:46:13.355Z,935.2
2018-06-14T16:47:13.247Z,935.2
2018-06-14T16:48:13.566Z,935.1
2018-06-14T16:49:13.445Z,935.2
2018-06-14T16:50:13.564Z,935.1
2018-06-14T16:51:13.526Z,934.8
2018-06-14T16:52:17.331Z,935.1
2018-06-14T16:53:17.270Z,935.1
2018-06-14T16:54:17.127Z,934.8
2018-06-14T16:55:19.714Z,935.2
2018-06-14T16:56:19.608Z,935.1
2018-06-14T16:57:19.517Z,934.8
2018-06-14T16:58:19.427Z,933.6
2018-06-14T16:59:22.637Z,935.1
2018-06-14T17:00:22.534Z,935.1
2018-06-14T17:01:22.429Z,935.1
2018-06-14T17:02:23.797Z,935.1
2018-06-14T17:03:23.709Z,935.1
2018-06-14T17:04:23.590Z,935.2
2018-06-14T17:05:23.809Z,934.7
2018-06-14T17:06:23.956Z,935.1
2018-06-14T17:07:23.857Z,935.2
2018-06-14T17:08:23.724Z,935.1
2018-06-14T17:09:24.340Z,935.2
2018-06-14T17:10:24.369Z,935.1
2018-06-14T17:11:24.345Z,935.2
2018-06-14T17:12:24.637Z,934.8
2018-06-14T17:13:24.760Z,935.2
2018-06-14T17:14:24.665Z,935.2
2018-06-14T17:15:24.987Z,935
2018-06-14T17:16:24.970Z,935.2
2018-06-14T17:17:28.074Z,934.8
2018-06-14T17:18:28.411Z,935.2
2018-06-14T17:19:28.334Z,935.2
2018-06-14T17:20:28.206Z,935.2
2018-06-14T17:21:28.074Z,934
2018-06-14T17:22:28.418Z,935.2
2018-06-14T17:23:28.307Z,935.2
2018-06-14T17:24:28.201Z,934.9
2018-06-14T17:25:28.107Z,935.2
2018-06-14T17:26:27.986Z,934.9
2018-06-14T17:27:27.851Z,935.3
2018-06-14T17:28:28.382Z,935.2
2018-06-14T17:29:28.490Z,935.2
2018-06-14T17:30:28.411Z,935.2
2018-06-14T17:31:28.326Z,934.9
2018-06-14T17:32:29.347Z,935.2
2018-06-14T17:33:29.214Z,935.2
2018-06-14T17:34:29.108Z,935.2
2018-06-14T17:35:29.999Z,934.8
2018-06-14T17:36:29.882Z,935.2
2018-06-14T17:37:29.767Z,935.2
2018-06-14T17:38:29.668Z,935.2
2018-06-14T17:39:29.539Z,935.2
2018-06-14T17:40:29.674Z,935.2
2018-06-14T17:41:30.493Z,935.2
2018-06-14T17:42:31.054Z,935.2
2018-06-14T17:43:30.953Z,935.3
2018-06-14T17:44:30.845Z,935.2
2018-06-14T17:45:30.745Z,935.2
2018-06-14T17:46:30.656Z,935.2
2018-06-14T17:47:30.565Z,935.2
2018-06-14T17:48:30.468Z,935.3
2018-06-14T17:49:30.386Z,935.3
2018-06-14T17:50:30.281Z,935.3
2018-06-14T17:51:30.200Z,935.3
2018-06-14T17:52:30.529Z,934.9
2018-06-14T17:53:30.812Z,935.2
2018-06-14T17:54:30.770Z,935.3
2018-06-14T17:55:30.656Z,934.9
2018-06-14T17:56:30.562Z,934.9
2018-06-14T17:57:30.451Z,935.4
2018-06-14T17:58:30.333Z,935.3
2018-06-14T17:59:30.250Z,935.4
2018-06-14T18:00:30.366Z,935.3
2018-06-14T18:01:30.480Z,935.2
2018-06-14T18:02:30.848Z,935.2
2018-06-14T18:03:31.212Z,934.9
2018-06-14T18:04:31.100Z,935.3
2018-06-14T18:05:30.999Z,935.3
2018-06-14T18:06:31.506Z,934.2
2018-06-14T18:07:31.525Z,935.3
2018-06-14T18:08:31.403Z,935.3
2018-06-14T18:09:31.303Z,935.2
2018-06-14T18:10:31.249Z,935.3
2018-06-14T18:11:31.125Z,935.3
2018-06-14T18:12:31.618Z,935.3
2018-06-14T18:13:31.502Z,934.9
2018-06-14T18:14:31.383Z,935.3
2018-06-14T18:15:31.298Z,935
2018-06-14T18:16:31.169Z,935.3
2018-06-14T18:17:31.116Z,935.3
2018-06-14T18:18:30.991Z,935.3
2018-06-14T18:19:30.867Z,935.4
2018-06-14T18:20:30.760Z,935.3
2018-06-14T18:21:30.627Z,935
2018-06-14T18:22:31.487Z,935.2
2018-06-14T18:23:31.384Z,935.3
2018-06-14T18:24:31.261Z,935
2018-06-14T18:25:31.153Z,935.3
2018-06-14T18:26:31.053Z,935.4
2018-06-14T18:27:30.937Z,935.4
2018-06-14T18:28:30.837Z,935.4
2018-06-14T18:29:30.737Z,935.5
2018-06-14T18:30:30.652Z,935.5
2018-06-14T18:31:30.548Z,935.5
2018-06-14T18:32:31.094Z,935.5
2018-06-14T18:33:31.007Z,935.5
2018-06-14T18:34:30.908Z,935.5
2018-06-14T18:35:30.818Z,935.5
2018-06-14T18:36:30.719Z,935.5
2018-06-14T18:37:30.615Z,935.5
2018-06-14T18:38:30.504Z,935.6
2018-06-14T18:39:30.410Z,935.5
2018-06-14T18:40:30.321Z,935.6
2018-06-14T18:41:30.206Z,935.7
2018-06-14T18:42:30.524Z,935.7
2018-06-14T18:43:30.425Z,935.5
2018-06-14T18:44:30.669Z,935.6
2018-06-14T18:45:30.582Z,935.2
2018-06-14T18:46:30.514Z,935.6
2018-06-14T18:47:30.444Z,935.6
2018-06-14T18:48:30.345Z,935.6
2018-06-14T18:49:30.260Z,935.6
2018-06-14T18:50:30.148Z,935.6
2018-06-14T18:51:30.037Z,935.6
2018-06-14T18:52:30.340Z,932.5
2018-06-14T18:53:30.273Z,935.6
2018-06-14T18:54:30.143Z,932.5
2018-06-14T18:55:30.022Z,935.6
2018-06-14T18:56:29.908Z,935.6
2018-06-14T18:57:29.781Z,935.7
2018-06-14T18:58:29.698Z,935.7
2018-06-14T18:59:29.589Z,935.6
2018-06-14T19:00:29.467Z,935.7
2018-06-14T19:01:29.462Z,935.3
2018-06-14T19:02:29.765Z,935.6
2018-06-14T19:03:29.711Z,935.6
2018-06-14T19:04:29.582Z,935.3
2018-06-14T19:05:29.478Z,935.7
2018-06-14T19:06:29.367Z,935.7
2018-06-14T19:07:29.325Z,933.9
2018-06-14T19:08:29.210Z,935.4
2018-06-14T19:09:29.087Z,935.7
2018-06-14T19:10:28.944Z,935.7
2018-06-14T19:11:28.823Z,935.4
2018-06-14T19:12:31.287Z,935.4
2018-06-14T19:13:31.208Z,935.8
2018-06-14T19:14:31.083Z,935.4
2018-06-14T19:15:30.966Z,935.8
2018-06-14T19:16:30.853Z,935.8
2018-06-14T19:17:31.517Z,935.9
2018-06-14T19:18:31.477Z,935.9
2018-06-14T19:19:31.359Z,935.9
2018-06-14T19:20:31.252Z,935.9
2018-06-14T19:21:31.151Z,935.9
2018-06-14T19:22:31.529Z,936
2018-06-14T19:23:31.418Z,936
2018-06-14T19:24:31.326Z,936
2018-06-14T19:25:34.634Z,935.9
2018-06-14T19:26:34.809Z,936
2018-06-14T19:27:34.685Z,935.7
2018-06-14T19:28:34.571Z,935.7
2018-06-14T19:29:34.485Z,936.1
2018-06-14T19:30:34.376Z,935.7
2018-06-14T19:31:34.269Z,936
2018-06-14T19:32:34.577Z,936.1
2018-06-14T19:33:34.539Z,936.1
2018-06-14T19:34:34.435Z,936.2
2018-06-14T19:35:34.351Z,936.3
2018-06-14T19:36:34.488Z,936.2
2018-06-14T19:37:34.360Z,936.3
2018-06-14T19:38:34.236Z,935.9
2018-06-14T19:39:34.123Z,936.3
2018-06-14T19:40:34.020Z,936.3
2018-06-14T19:41:33.897Z,936.3
2018-06-14T19:42:34.206Z,936.4
2018-06-14T19:43:34.100Z,936.5
2018-06-14T19:44:33.975Z,936.5
2018-06-14T19:45:33.862Z,936.1
2018-06-14T19:46:33.746Z,936.5
2018-06-14T19:47:33.614Z,936.5
2018-06-14T19:48:33.508Z,936.5
2018-06-14T19:49:33.371Z,936.2
2018-06-14T19:50:33.273Z,936.5
2018-06-14T19:51:33.157Z,936.5
2018-06-14T19:52:33.432Z,936.5
2018-06-14T19:53:33.307Z,936.1
2018-06-14T19:54:33.198Z,936.4
2018-06-14T19:55:33.128Z,936.6
2018-06-14T19:56:33.014Z,936.2
2018-06-14T19:57:32.915Z,936.2
2018-06-14T19:58:32.794Z,936.7
2018-06-14T19:59:32.743Z,933.7
2018-06-14T20:00:32.656Z,936.7
2018-06-14T20:01:32.534Z,936.2
2018-06-14T20:02:32.847Z,936.3
2018-06-14T20:03:32.735Z,936.7
2018-06-14T20:04:32.628Z,936.7
2018-06-14T20:05:32.508Z,936.7
2018-06-14T20:06:32.402Z,936.8
2018-06-14T20:07:32.293Z,936.7
2018-06-14T20:08:32.201Z,936.8
2018-06-14T20:09:32.094Z,936.7
2018-06-14T20:10:32.021Z,936.7
2018-06-14T20:11:31.898Z,936.7
2018-06-14T20:12:32.276Z,936.7
2018-06-14T20:13:32.161Z,936.7
2018-06-14T20:14:32.070Z,936.7
2018-06-14T20:15:31.998Z,936.7
2018-06-14T20:16:31.887Z,936.8
2018-06-14T20:17:31.750Z,936.8
2018-06-14T20:18:31.636Z,936.4
2018-06-14T20:19:31.529Z,936.5
2018-06-14T20:20:31.664Z,934.8
2018-06-14T20:21:31.593Z,936.9
2018-06-14T20:22:31.889Z,936.9
2018-06-14T20:23:31.782Z,936.9
2018-06-14T20:24:31.666Z,936.5
2018-06-14T20:25:31.539Z,936.8
2018-06-14T20:26:31.786Z,936.9
2018-06-14T20:27:31.657Z,937
2018-06-14T20:28:31.564Z,936.9
2018-06-14T20:29:31.451Z,936.9
2018-06-14T20:30:31.362Z,936.9
2018-06-14T20:31:33.463Z,937
2018-06-14T20:32:33.802Z,937
2018-06-14T20:33:33.691Z,937
2018-06-14T20:34:33.575Z,937
2018-06-14T20:35:33.475Z,936.5
2018-06-14T20:36:33.407Z,937
2018-06-14T20:37:33.321Z,937
2018-06-14T20:38:33.200Z,936.5
2018-06-14T20:39:33.097Z,937
2018-06-14T20:40:32.989Z,937
2018-06-14T20:41:32.895Z,937
2018-06-14T20:42:33.874Z,937
2018-06-14T20:43:33.780Z,937
2018-06-14T20:44:33.651Z,936.7
2018-06-14T20:45:33.541Z,937.2
2018-06-14T20:46:33.416Z,937.1
2018-06-14T20:47:33.290Z,937.1
2018-06-14T20:48:33.178Z,937.1
2018-06-14T20:49:33.059Z,937
2018-06-14T20:50:32.949Z,937
2018-06-14T20:51:32.858Z,937.2
2018-06-14T20:52:33.231Z,937.1
2018-06-14T20:53:33.131Z,937
2018-06-14T20:54:33.026Z,937
2018-06-14T20:55:32.905Z,936.6
2018-06-14T20:56:32.813Z,936.7
2018-06-14T20:57:33.081Z,937
2018-06-14T20:58:33.003Z,937.1
2018-06-14T20:59:32.892Z,937
2018-06-14T21:00:32.800Z,937.1
2018-06-14T21:01:32.688Z,937.2
2018-06-14T21:02:32.999Z,937.2
2018-06-14T21:03:33.145Z,937.2
2018-06-14T21:04:33.056Z,937.2
2018-06-14T21:05:32.935Z,937.2
2018-06-14T21:06:32.822Z,937.3
2018-06-14T21:07:32.698Z,934
2018-06-14T21:08:32.599Z,936.9
2018-06-14T21:09:32.471Z,937.3
2018-06-14T21:10:32.368Z,937.3
2018-06-14T21:11:32.244Z,937.3
2018-06-14T21:12:32.563Z,937.3
2018-06-14T21:13:32.454Z,937.3
2018-06-14T21:14:32.333Z,933.7
2018-06-14T21:15:32.427Z,936.9
2018-06-14T21:16:32.314Z,937.3
2018-06-14T21:17:32.191Z,937.2
2018-06-14T21:18:32.059Z,937.3
2018-06-14T21:19:31.955Z,936.8
2018-06-14T21:20:31.869Z,935.6
2018-06-14T21:21:31.789Z,937.3
2018-06-14T21:22:32.295Z,934.8
2018-06-14T21:23:32.176Z,936.9
2018-06-14T21:24:32.103Z,937.3
2018-06-14T21:25:31.984Z,937.3
2018-06-14T21:26:31.857Z,937.2
2018-06-14T21:27:31.733Z,937.2
2018-06-14T21:28:31.610Z,933.7
2018-06-14T21:29:31.511Z,937.2
2018-06-14T21:30:31.398Z,937.2
2018-06-14T21:31:31.271Z,937.2
2018-06-14T21:32:31.578Z,937.2
2018-06-14T21:33:31.440Z,937.3
2018-06-14T21:34:31.333Z,936.9
2018-06-14T21:35:31.212Z,937.3
2018-06-14T21:36:31.090Z,937.2
2018-06-14T21:37:30.946Z,936.9
2018-06-14T21:38:30.832Z,937.3
2018-06-14T21:39:30.750Z,936.8
2018-06-14T21:40:30.628Z,937.3
2018-06-14T21:41:30.503Z,937.2
2018-06-14T21:42:30.812Z,937.3
2018-06-14T21:43:30.708Z,937.3
2018-06-14T21:44:30.603Z,937.3
2018-06-14T21:45:30.472Z,937.3
2018-06-14T21:46:30.604Z,937.1
2018-06-14T21:47:30.485Z,937.3
2018-06-14T21:48:30.354Z,937.3
2018-06-14T21:49:30.258Z,937.3
2018-06-14T21:50:30.138Z,937.2
2018-06-14T21:51:30.028Z,937.3
2018-06-14T21:52:30.340Z,937
2018-06-14T21:53:30.267Z,937.3
2018-06-14T21:54:30.207Z,937.3
2018-06-14T21:55:30.098Z,937.2
2018-06-14T21:56:29.977Z,937.2
2018-06-14T21:57:29.844Z,937.2
2018-06-14T21:58:29.736Z,937.2
2018-06-14T21:59:29.650Z,936.8
2018-06-14T22:00:29.525Z,937.3
2018-06-14T22:01:29.390Z,937.3
2018-06-14T22:02:29.721Z,937.3
2018-06-14T22:03:29.633Z,937.3
2018-06-14T22:04:29.527Z,937.2
2018-06-14T22:05:29.432Z,937.2
2018-06-14T22:06:31.602Z,937.3
2018-06-14T22:07:31.496Z,937.2
2018-06-14T22:08:31.374Z,937.2
2018-06-14T22:09:31.245Z,937.3
2018-06-14T22:10:31.133Z,937.3
2018-06-14T22:11:31.091Z,937.3
2018-06-14T22:12:31.389Z,936.9
2018-06-14T22:13:31.270Z,937.2
2018-06-14T22:14:31.130Z,937.3
2018-06-14T22:15:31.030Z,937.2
2018-06-14T22:16:30.924Z,936.8
2018-06-14T22:17:30.837Z,937.3
2018-06-14T22:18:30.982Z,937.3
2018-06-14T22:19:30.856Z,937.3
2018-06-14T22:20:30.719Z,936.9
2018-06-14T22:21:30.602Z,937.4
2018-06-14T22:22:30.885Z,937.3
2018-06-14T22:23:30.780Z,937.3
2018-06-14T22:24:30.665Z,937.3
2018-06-14T22:25:30.559Z,937.1
2018-06-14T22:26:30.469Z,937
2018-06-14T22:27:31.361Z,937.2
2018-06-14T22:28:31.237Z,937.3
2018-06-14T22:29:31.120Z,937.4
2018-06-14T22:30:31.033Z,937.3
2018-06-14T22:31:30.953Z,937.3
2018-06-14T22:32:31.224Z,937.3
2018-06-14T22:33:31.075Z,937.3
2018-06-14T22:34:30.952Z,937.3
2018-06-14T22:35:30.836Z,936.9
2018-06-14T22:36:30.736Z,936.8
2018-06-14T22:37:31.013Z,937.3
2018-06-14T22:38:30.902Z,937.2
2018-06-14T22:39:30.786Z,937.2
2018-06-14T22:40:33.368Z,937.2
2018-06-14T22:41:33.244Z,937.2
2018-06-14T22:42:36.297Z,936.9
2018-06-14T22:43:36.408Z,936.7
2018-06-14T22:44:36.842Z,937.1
2018-06-14T22:45:36.826Z,937.1
2018-06-14T22:46:36.735Z,936.8
2018-06-14T22:47:36.607Z,937.1
2018-06-14T22:48:36.492Z,937.1
2018-06-14T22:49:36.369Z,937.1
2018-06-14T22:50:36.226Z,937.1
2018-06-14T22:51:36.108Z,937
2018-06-14T22:52:36.415Z,937
2018-06-14T22:53:36.284Z,933.6
2018-06-14T22:54:36.180Z,936.7
2018-06-14T22:55:36.064Z,937
2018-06-14T22:56:35.951Z,937
2018-06-14T22:57:35.876Z,937.1
2018-06-14T22:58:35.743Z,937
2018-06-14T22:59:35.623Z,937
2018-06-14T23:00:35.478Z,937
2018-06-14T23:01:35.357Z,937
2018-06-14T23:02:35.646Z,937
2018-06-14T23:03:35.539Z,937
2018-06-14T23:04:35.405Z,937
2018-06-14T23:05:35.289Z,937
2018-06-14T23:06:35.180Z,937
2018-06-14T23:07:35.066Z,937.1
2018-06-14T23:08:34.927Z,937.1
2018-06-14T23:09:34.869Z,936.7
2018-06-14T23:10:34.963Z,936.7
2018-06-14T23:11:34.845Z,937
2018-06-14T23:12:35.154Z,937.1
2018-06-14T23:13:35.053Z,937.2
2018-06-14T23:14:34.958Z,937.1
2018-06-14T23:15:34.837Z,937.1
2018-06-14T23:16:34.716Z,937.1
2018-06-14T23:17:34.798Z,936.7
2018-06-14T23:18:34.659Z,937.2
2018-06-14T23:19:34.535Z,937.2
2018-06-14T23:20:34.467Z,937.1
2018-06-14T23:21:34.349Z,937.1
2018-06-14T23:22:37.023Z,937.1
2018-06-14T23:23:36.946Z,937
2018-06-14T23:24:36.827Z,937.1
2018-06-14T23:25:36.720Z,937.1
2018-06-14T23:26:36.607Z,936.7
2018-06-14T23:27:36.493Z,937.1
2018-06-14T23:28:36.369Z,937.1
2018-06-14T23:29:36.270Z,937.2
2018-06-14T23:30:36.161Z,937.1
2018-06-14T23:31:36.034Z,933.6